Time;durP1;ratioP1;P1;durP2;ratioP2;P2;SDS_P1;SDS_P2;PMS_P1;PMS_P2;Temp;Humidity;BMP_temperature;BMP_pressure;BME280_temperature;BME280_humidity;BME280_pressure;Samples;Min_cycle;Max_cycle;Signal;HPM_P1;HPM_P2
2022/01/12 00:01:10;;;;;;;0.50;0.10;;;6.00;1.00;;;;;;5107673;28;20922;-77
2022/01/12 00:03:38;;;;;;;0.50;0.10;;;6.00;1.00;;;;;;5109749;28;20526;-80
2022/01/12 00:06:06;;;;;;;0.50;0.10;;;6.00;1.00;;;;;;5110214;28;20454;-77
2022/01/12 00:08:35;;;;;;;0.50;0.10;;;6.00;1.00;;;;;;5108992;28;20510;-78
2022/01/12 00:11:04;;;;;;;0.50;0.10;;;5.90;1.00;;;;;;5111222;28;20554;-75
2022/01/12 00:13:35;;;;;;;0.50;0.10;;;5.90;1.00;;;;;;5110487;28;20471;-77
2022/01/12 00:16:04;;;;;;;0.50;0.10;;;5.90;1.00;;;;;;5110839;28;20466;-77
2022/01/12 00:18:33;;;;;;;0.50;0.10;;;5.90;1.00;;;;;;5108861;28;20481;-78
2022/01/12 00:21:01;;;;;;;0.50;0.10;;;5.90;1.00;;;;;;5113031;28;20466;-77
2022/01/12 00:23:29;;;;;;;0.50;0.10;;;5.90;1.00;;;;;;5113971;28;20439;-76
2022/01/12 00:26:02;;;;;;;0.50;0.10;;;5.90;1.00;;;;;;5114011;28;20653;-78
2022/01/12 00:34:05;;;;;;;0.50;0.10;;;5.90;1.00;;;;;;5112175;28;20456;-76
2022/01/12 00:36:34;;;;;;;0.50;0.10;;;5.90;1.00;;;;;;5113954;28;20665;-77
2022/01/12 00:39:03;;;;;;;0.50;0.10;;;5.90;1.00;;;;;;5114078;28;20434;-78
2022/01/12 00:41:31;;;;;;;0.50;0.10;;;5.90;1.00;;;;;;5113099;28;20545;-76
2022/01/12 00:44:01;;;;;;;0.50;0.10;;;5.90;1.00;;;;;;5113806;28;20424;-78
2022/01/12 00:46:31;;;;;;;0.50;0.10;;;5.90;1.00;;;;;;5114526;28;20446;-77
2022/01/12 00:49:00;;;;;;;0.50;0.10;;;5.90;1.00;;;;;;5114194;28;20506;-77
2022/01/12 00:51:31;;;;;;;0.50;0.10;;;5.90;1.00;;;;;;5113972;28;20478;-77
2022/01/12 00:54:01;;;;;;;0.50;0.10;;;5.90;1.00;;;;;;5112075;28;20521;-79
2022/01/12 00:56:29;;;;;;;0.50;0.10;;;5.90;1.00;;;;;;5106616;28;20538;-77
2022/01/12 00:58:57;;;;;;;0.50;0.20;;;5.90;1.00;;;;;;5111862;28;20475;-76
2022/01/12 01:01:25;;;;;;;0.50;0.10;;;5.90;1.00;;;;;;5113130;28;20469;-76
2022/01/12 01:03:55;;;;;;;0.50;0.10;;;5.90;1.00;;;;;;5112807;28;20449;-78
2022/01/12 01:06:23;;;;;;;0.50;0.10;;;5.80;1.00;;;;;;5102741;28;20463;-79
2022/01/12 01:08:52;;;;;;;0.50;0.10;;;5.80;1.00;;;;;;5101576;28;20489;-79
2022/01/12 01:11:20;;;;;;;0.50;0.10;;;5.70;1.00;;;;;;5102515;28;20454;-78
2022/01/12 01:13:57;;;;;;;0.50;0.10;;;5.70;1.00;;;;;;5107290;28;20527;-79
2022/01/12 01:16:30;;;;;;;0.50;0.10;;;5.70;1.00;;;;;;5106150;28;20449;-77
2022/01/12 01:27:16;;;;;;;0.50;0.10;;;5.40;1.00;;;;;;5108227;28;20513;-77
2022/01/12 01:29:44;;;;;;;0.50;0.10;;;5.30;1.00;;;;;;5110905;28;20468;-77
2022/01/12 01:32:13;;;;;;;0.50;0.10;;;5.30;1.00;;;;;;5107065;28;20833;-78
2022/01/12 01:34:46;;;;;;;0.50;0.10;;;5.40;1.00;;;;;;5107710;28;20485;-77
2022/01/12 01:37:14;;;;;;;0.50;0.10;;;5.40;1.00;;;;;;5087987;28;20433;-77
2022/01/12 01:39:43;;;;;;;0.50;0.10;;;5.30;1.00;;;;;;5113002;28;20429;-78
2022/01/12 01:42:18;;;;;;;0.50;0.10;;;5.30;1.00;;;;;;5115290;28;20483;-76
2022/01/12 01:53:21;;;;;;;0.50;0.10;;;5.30;1.00;;;;;;5116259;28;20437;-78
2022/01/12 01:55:51;;;;;;;0.50;0.10;;;5.30;1.00;;;;;;5115902;28;20515;-77
2022/01/12 01:58:19;;;;;;;0.50;0.10;;;5.20;1.00;;;;;;5115411;28;20502;-77
2022/01/12 02:00:47;;;;;;;0.50;0.10;;;5.20;1.00;;;;;;5115967;28;20453;-77
2022/01/12 02:03:17;;;;;;;0.50;0.10;;;5.10;1.00;;;;;;5116552;28;20505;-77
2022/01/12 02:05:47;;;;;;;0.50;0.10;;;5.10;1.00;;;;;;5115839;28;20589;-77
2022/01/12 02:08:16;;;;;;;0.50;0.10;;;5.10;1.00;;;;;;5115753;28;20451;-76
2022/01/12 02:10:43;;;;;;;0.50;0.10;;;5.10;1.00;;;;;;5111572;28;20449;-78
2022/01/12 02:13:12;;;;;;;0.50;0.10;;;5.00;1.00;;;;;;5113043;28;20440;-78
2022/01/12 02:15:44;;;;;;;0.50;0.10;;;5.00;1.00;;;;;;5111598;28;20505;-77
2022/01/12 02:18:18;;;;;;;0.50;0.10;;;5.00;1.00;;;;;;5107354;28;20490;-76
2022/01/12 02:35:17;;;;;;;0.50;0.10;;;5.00;1.00;;;;;;5109307;28;20453;-78
2022/01/12 02:40:38;;;;;;;0.50;0.10;;;4.90;1.00;;;;;;5101174;28;20534;-77
2022/01/12 02:43:13;;;;;;;0.50;0.10;;;4.90;1.00;;;;;;5104290;28;20496;-77
2022/01/12 02:51:29;;;;;;;0.50;0.10;;;4.90;1.00;;;;;;5109993;28;20493;-77
2022/01/12 02:53:59;;;;;;;0.50;0.10;;;4.90;1.00;;;;;;5106617;28;20465;-77
2022/01/12 02:56:28;;;;;;;0.50;0.10;;;4.90;1.00;;;;;;5104503;28;20446;-77
2022/01/12 02:58:59;;;;;;;0.50;0.10;;;4.90;1.00;;;;;;5108857;28;20444;-77
2022/01/12 03:04:16;;;;;;;0.50;0.10;;;4.90;1.00;;;;;;5105612;28;20474;-77
2022/01/12 03:06:45;;;;;;;0.50;0.10;;;4.80;1.00;;;;;;5105529;28;20471;-77
2022/01/12 03:09:15;;;;;;;0.50;0.10;;;4.70;1.00;;;;;;5103689;28;20462;-76
2022/01/12 03:11:43;;;;;;;0.50;0.10;;;4.80;1.00;;;;;;5101870;28;20483;-77
2022/01/12 03:14:10;;;;;;;0.50;0.10;;;4.90;1.00;;;;;;5101969;28;20436;-77
2022/01/12 03:16:38;;;;;;;0.50;0.10;;;4.90;1.00;;;;;;5105052;28;20540;-77
2022/01/12 03:19:06;;;;;;;0.50;0.10;;;4.90;1.00;;;;;;5103106;28;20452;-77
2022/01/12 03:21:35;;;;;;;0.50;0.10;;;4.90;1.00;;;;;;5104696;28;20475;-78
2022/01/12 03:24:08;;;;;;;0.50;0.10;;;4.80;1.00;;;;;;5107829;28;20491;-76
2022/01/12 03:26:38;;;;;;;0.50;0.10;;;4.80;1.00;;;;;;5103888;28;20438;-76
2022/01/12 03:29:06;;;;;;;0.50;0.10;;;4.80;1.00;;;;;;5098606;28;20448;-78
2022/01/12 03:31:35;;;;;;;0.50;0.10;;;4.80;1.00;;;;;;5098761;28;20486;-77
2022/01/12 03:34:10;;;;;;;0.50;0.10;;;4.80;1.00;;;;;;5097332;28;20445;-77
2022/01/12 03:36:42;;;;;;;0.50;0.10;;;4.80;1.00;;;;;;5099953;28;20972;-77
2022/01/12 03:39:13;;;;;;;0.50;0.10;;;4.80;1.00;;;;;;5099547;28;20450;-76
2022/01/12 03:41:44;;;;;;;0.50;0.20;;;4.80;1.00;;;;;;5097954;28;20469;-77
2022/01/12 03:44:13;;;;;;;0.50;0.10;;;4.70;1.00;;;;;;5097444;28;20479;-77
2022/01/12 03:46:45;;;;;;;0.67;0.10;;;4.70;1.00;;;;;;5096708;28;20448;-77
2022/01/12 03:49:13;;;;;;;0.50;0.10;;;4.70;1.00;;;;;;5096985;28;20495;-76
2022/01/12 03:51:41;;;;;;;0.50;0.10;;;4.70;1.00;;;;;;5099568;28;20467;-78
2022/01/12 03:54:09;;;;;;;0.50;0.10;;;4.70;1.00;;;;;;5097653;28;20449;-77
2022/01/12 03:56:38;;;;;;;0.50;0.10;;;4.70;1.00;;;;;;5099562;28;20526;-77
2022/01/12 03:59:08;;;;;;;0.50;0.10;;;4.70;1.00;;;;;;5099291;28;20891;-78
2022/01/12 04:01:36;;;;;;;0.50;0.10;;;4.70;1.00;;;;;;5098399;28;20589;-79
2022/01/12 04:04:17;;;;;;;0.50;0.10;;;4.70;1.00;;;;;;5098713;28;20469;-77
2022/01/12 04:09:43;;;;;;;0.50;0.10;;;4.60;1.00;;;;;;5079330;28;20458;-78
2022/01/12 04:12:13;;;;;;;0.50;0.10;;;4.70;1.00;;;;;;5076593;28;20479;-76
2022/01/12 04:14:42;;;;;;;0.50;0.10;;;4.70;1.00;;;;;;5077526;28;20453;-78
2022/01/12 04:17:10;;;;;;;0.50;0.10;;;4.70;1.00;;;;;;5096741;28;20453;-77
2022/01/12 04:19:38;;;;;;;0.50;0.10;;;4.70;1.00;;;;;;5099455;28;20505;-79
2022/01/12 04:23:16;;;;;;;0.50;0.10;;;4.70;1.00;;;;;;5099295;28;20472;-77
2022/01/12 04:24:56;;;;;;;0.50;0.10;;;4.70;1.00;;;;;;5100301;28;20558;-77
2022/01/12 04:27:24;;;;;;;0.50;0.10;;;4.70;1.00;;;;;;5098514;28;20440;-77
2022/01/12 04:29:53;;;;;;;0.50;0.10;;;;;;;;;;5098074;28;20443;-78
2022/01/12 04:32:24;;;;;;;0.50;0.10;;;4.70;1.00;;;;;;5100626;28;20525;-79
2022/01/12 04:34:52;;;;;;;0.50;0.10;;;4.70;1.00;;;;;;5099980;28;20565;-78
2022/01/12 04:37:20;;;;;;;0.50;0.10;;;4.70;1.00;;;;;;5105421;28;20526;-77
2022/01/12 04:39:48;;;;;;;0.50;0.10;;;4.70;1.00;;;;;;5102507;28;20434;-76
2022/01/12 04:42:16;;;;;;;0.50;0.10;;;4.70;1.00;;;;;;5093536;28;20485;-78
2022/01/12 04:44:47;;;;;;;0.50;0.10;;;4.60;1.00;;;;;;5101976;28;20487;-77
2022/01/12 04:47:29;;;;;;;0.50;0.10;;;4.60;1.00;;;;;;5106769;28;20439;-77
2022/01/12 04:49:57;;;;;;;0.50;0.10;;;4.60;1.00;;;;;;5104543;28;20452;-76
2022/01/12 04:52:25;;;;;;;0.50;0.10;;;4.60;1.00;;;;;;5102626;28;20487;-76
2022/01/12 04:54:53;;;;;;;0.50;0.10;;;4.50;1.00;;;;;;5100617;28;20528;-77
2022/01/12 04:57:21;;;;;;;0.50;0.10;;;4.50;1.00;;;;;;5101140;28;21002;-78
2022/01/12 05:00:03;;;;;;;0.50;0.10;;;4.40;1.00;;;;;;5101449;28;20490;-77
2022/01/12 05:08:17;;;;;;;0.50;0.10;;;4.50;1.00;;;;;;5080486;28;20810;-77
2022/01/12 05:13:33;;;;;;;0.50;0.10;;;4.60;1.00;;;;;;5101075;28;20457;-78
2022/01/12 05:16:01;;;;;;;0.50;0.10;;;4.60;1.00;;;;;;5106923;28;20445;-77
2022/01/12 05:18:31;;;;;;;0.50;0.10;;;4.60;1.00;;;;;;5115421;28;20427;-77
2022/01/12 05:20:59;;;;;;;0.50;0.10;;;4.70;1.00;;;;;;5116279;28;20448;-78
2022/01/12 05:23:28;;;;;;;0.50;0.10;;;4.60;1.00;;;;;;5116007;28;20496;-77
2022/01/12 05:25:56;;;;;;;0.50;0.10;;;4.60;1.00;;;;;;5115090;28;20474;-77
2022/01/12 05:28:25;;;;;;;0.50;0.10;;;4.60;1.00;;;;;;5112674;28;20508;-78
2022/01/12 05:30:54;;;;;;;0.50;0.10;;;4.60;1.00;;;;;;5101589;28;20529;-78
2022/01/12 05:33:24;;;;;;;0.50;0.10;;;4.60;1.00;;;;;;5110272;28;20438;-79
2022/01/12 05:35:55;;;;;;;0.50;0.10;;;4.50;1.00;;;;;;5101433;28;20526;-77
2022/01/12 05:38:24;;;;;;;0.50;0.10;;;4.60;1.00;;;;;;5082220;28;20597;-77
2022/01/12 05:40:55;;;;;;;0.50;0.10;;;4.50;1.00;;;;;;5082244;28;20464;-78
2022/01/12 05:43:26;;;;;;;0.50;0.10;;;4.50;1.00;;;;;;5098538;28;20851;-78
2022/01/12 05:45:56;;;;;;;0.50;0.10;;;4.50;1.00;;;;;;5086836;28;20444;-79
2022/01/12 05:51:11;;;;;;;0.50;0.10;;;4.60;1.00;;;;;;5096427;28;20479;-78
2022/01/12 05:53:39;;;;;;;0.50;0.10;;;4.60;1.00;;;;;;5095671;28;20462;-78
2022/01/12 05:56:07;;;;;;;0.50;0.10;;;4.60;1.00;;;;;;5079204;28;20468;-78
2022/01/12 05:58:35;;;;;;;0.50;0.10;;;4.00;1.00;;;;;;5081283;28;20442;-77
2022/01/12 06:01:03;;;;;;;0.50;0.10;;;4.70;1.00;;;;;;5076540;28;20465;-77
2022/01/12 06:03:32;;;;;;;0.50;0.10;;;4.70;1.00;;;;;;5088254;28;20486;-79
2022/01/12 06:06:00;;;;;;;0.50;0.10;;;4.70;1.00;;;;;;5096608;28;20426;-77
2022/01/12 06:08:34;;;;;;;0.50;0.10;;;4.70;1.00;;;;;;5096740;28;21011;-78
2022/01/12 06:11:02;;;;;;;0.50;0.10;;;4.60;1.00;;;;;;5096930;28;20475;-79
2022/01/12 06:13:30;;;;;;;0.50;0.10;;;4.60;1.00;;;;;;5096330;28;20439;-78
2022/01/12 06:15:58;;;;;;;0.50;0.10;;;4.70;1.00;;;;;;5091102;28;20511;-78
2022/01/12 06:18:26;;;;;;;0.50;0.10;;;4.70;1.00;;;;;;5087616;28;21029;-79
2022/01/12 06:20:54;;;;;;;0.60;0.40;;;4.60;1.00;;;;;;5095480;28;20448;-78
2022/01/12 06:23:22;;;;;;;0.50;0.20;;;4.60;1.00;;;;;;5095940;28;20455;-77
2022/01/12 06:25:51;;;;;;;0.50;0.10;;;4.50;1.00;;;;;;5096391;28;21002;-78
2022/01/12 06:28:35;;;;;;;0.50;0.10;;;4.40;1.00;;;;;;5095516;28;20449;-79
2022/01/12 06:31:14;;;;;;;0.50;0.10;;;4.40;1.00;;;;;;5095469;28;20474;-76
2022/01/12 06:33:44;;;;;;;0.50;0.10;;;4.40;1.00;;;;;;5096109;28;20428;-78
2022/01/12 06:36:14;;;;;;;0.50;0.10;;;4.40;1.00;;;;;;5095736;28;20449;-77
2022/01/12 06:38:42;;;;;;;0.50;0.10;;;4.40;1.00;;;;;;5094757;28;20470;-77
2022/01/12 06:41:13;;;;;;;0.50;0.10;;;4.40;1.00;;;;;;5092122;28;20476;-78
2022/01/12 06:43:41;;;;;;;0.50;0.10;;;4.40;1.00;;;;;;5094747;28;20455;-78
2022/01/12 06:46:11;;;;;;;0.50;0.10;;;4.50;1.00;;;;;;5090498;28;20552;-79
2022/01/12 06:48:39;;;;;;;0.50;0.10;;;4.40;1.00;;;;;;5096968;28;20439;-79
2022/01/12 06:51:07;;;;;;;0.50;0.10;;;4.90;1.00;;;;;;5096435;28;21043;-79
2022/01/12 06:53:35;;;;;;;0.50;0.10;;;6.10;1.00;;;;;;5095153;28;20450;-78
2022/01/12 06:56:04;;;;;;;0.50;0.10;;;4.30;1.00;;;;;;5090976;28;20451;-77
2022/01/12 06:58:33;;;;;;;0.50;0.10;;;4.30;1.00;;;;;;5092976;28;20467;-81
2022/01/12 07:01:01;;;;;;;0.50;0.10;;;4.30;1.00;;;;;;5096539;28;20454;-78
2022/01/12 07:03:30;;;;;;;0.50;0.10;;;4.30;1.00;;;;;;5096077;28;20476;-79
2022/01/12 07:05:58;;;;;;;0.50;0.10;;;4.30;1.00;;;;;;5095277;28;20611;-78
2022/01/12 07:08:26;;;;;;;0.50;0.10;;;4.30;1.00;;;;;;5091645;28;20537;-80
2022/01/12 07:10:54;;;;;;;0.50;0.10;;;4.30;1.00;;;;;;5094472;28;20466;-78
2022/01/12 07:13:22;;;;;;;0.50;0.20;;;4.40;1.00;;;;;;5096018;28;20476;-78
2022/01/12 07:15:56;;;;;;;0.50;0.10;;;4.30;1.00;;;;;;5094821;28;20458;-77
2022/01/12 07:18:26;;;;;;;0.50;0.10;;;4.40;1.00;;;;;;5100517;28;20460;-78
2022/01/12 07:20:54;;;;;;;0.50;0.10;;;;;;;;;;5101607;28;20440;-79
2022/01/12 07:23:22;;;;;;;0.50;0.10;;;4.40;1.00;;;;;;5096586;28;20424;-79
2022/01/12 07:25:50;;;;;;;0.50;0.10;;;;;;;;;;5102172;28;20485;-78
2022/01/12 07:28:19;;;;;;;1.40;1.30;;;4.40;1.00;;;;;;5106409;28;20548;-78
2022/01/12 07:30:47;;;;;;;0.50;0.10;;;4.50;1.00;;;;;;5109377;28;20473;-78
2022/01/12 07:33:16;;;;;;;0.50;0.10;;;4.50;1.00;;;;;;5111002;28;20467;-77
2022/01/12 07:35:45;;;;;;;0.50;0.10;;;4.50;1.00;;;;;;5106312;28;20431;-80
2022/01/12 07:38:15;;;;;;;0.50;0.10;;;4.50;1.00;;;;;;5104670;28;20462;-80
2022/01/12 07:40:43;;;;;;;0.50;0.10;;;4.50;1.00;;;;;;5107899;28;20457;-80
2022/01/12 07:43:11;;;;;;;0.50;0.10;;;4.50;1.00;;;;;;5104058;28;20784;-77
2022/01/12 07:45:40;;;;;;;0.50;0.10;;;4.50;1.00;;;;;;5104665;28;20471;-78
2022/01/12 07:48:08;;;;;;;0.50;0.10;;;4.50;1.00;;;;;;5106350;28;20451;-78
2022/01/12 07:50:37;;;;;;;0.50;0.10;;;4.50;1.00;;;;;;5101462;28;20507;-78
2022/01/12 07:53:05;;;;;;;0.50;0.20;;;4.40;1.00;;;;;;5109803;28;20470;-78
2022/01/12 07:55:35;;;;;;;0.50;0.10;;;4.40;1.00;;;;;;5100534;28;20473;-78
2022/01/12 07:58:04;;;;;;;0.50;0.10;;;4.40;1.00;;;;;;5099548;28;20439;-78
2022/01/12 08:00:31;;;;;;;0.50;0.10;;;4.30;1.00;;;;;;5095396;28;20804;-79
2022/01/12 08:03:00;;;;;;;0.50;0.10;;;;;;;;;;5097296;28;20986;-77
2022/01/12 08:05:28;;;;;;;0.50;0.10;;;4.30;1.00;;;;;;5101184;28;21004;-78
2022/01/12 08:07:59;;;;;;;0.50;0.10;;;;;;;;;;5099551;28;20530;-77
2022/01/12 08:10:27;;;;;;;0.50;0.10;;;4.30;1.00;;;;;;5103053;28;20428;-79
2022/01/12 08:12:55;;;;;;;0.50;0.10;;;4.20;1.00;;;;;;5100378;28;20511;-77
2022/01/12 08:15:23;;;;;;;0.50;0.10;;;4.20;1.00;;;;;;5097585;28;20455;-78
2022/01/12 08:17:51;;;;;;;0.50;0.10;;;4.10;1.00;;;;;;5096900;28;20458;-78
2022/01/12 08:20:25;;;;;;;0.50;0.10;;;4.10;1.00;;;;;;5101048;28;20521;-78
2022/01/12 08:22:52;;;;;;;0.50;0.10;;;4.10;1.00;;;;;;5103377;28;20502;-77
2022/01/12 08:25:22;;;;;;;0.50;0.10;;;4.10;1.00;;;;;;5103672;28;20573;-77
2022/01/12 08:27:51;;;;;;;0.50;0.10;;;;;;;;;;5103659;28;20461;-78
2022/01/12 08:30:27;;;;;;;0.50;0.10;;;4.10;1.00;;;;;;5100813;28;20453;-77
2022/01/12 08:32:56;;;;;;;0.50;0.10;;;4.10;1.00;;;;;;5099988;28;20559;-78
2022/01/12 08:35:25;;;;;;;0.50;0.10;;;4.10;1.00;;;;;;5103583;28;20444;-78
2022/01/12 08:37:53;;;;;;;0.50;0.10;;;4.10;1.00;;;;;;5103247;28;20463;-79
2022/01/12 08:40:22;;;;;;;0.50;0.10;;;4.20;1.00;;;;;;5101060;28;20451;-76
2022/01/12 08:42:50;;;;;;;0.50;0.10;;;4.10;1.00;;;;;;5101433;28;20569;-78
2022/01/12 08:45:26;;;;;;;0.50;0.10;;;;;;;;;;5102493;28;21008;-79
2022/01/12 08:48:08;;;;;;;0.50;0.10;;;;;;;;;;5092621;28;20447;-78
2022/01/12 08:50:36;;;;;;;0.50;0.10;;;4.30;1.00;;;;;;5102317;28;20434;-78
2022/01/12 08:53:04;;;;;;;0.50;0.10;;;;;;;;;;5098300;28;20563;-78
2022/01/12 08:55:34;;;;;;;0.50;0.10;;;4.40;1.00;;;;;;5097758;28;20426;-78
2022/01/12 08:58:02;;;;;;;0.50;0.10;;;4.40;1.00;;;;;;5099291;28;20459;-78
2022/01/12 09:00:30;;;;;;;0.50;0.10;;;4.50;1.00;;;;;;5099639;28;20460;-78
2022/01/12 09:02:58;;;;;;;0.50;0.10;;;4.50;1.00;;;;;;5100572;28;20881;-77
2022/01/12 09:05:26;;;;;;;0.50;0.10;;;4.60;1.00;;;;;;5099780;28;20447;-78
2022/01/12 09:07:55;;;;;;;0.50;0.20;;;4.60;1.00;;;;;;5087495;28;20440;-78
2022/01/12 09:10:23;;;;;;;0.50;0.10;;;4.60;1.00;;;;;;5095644;28;20504;-78
2022/01/12 09:12:52;;;;;;;0.50;0.10;;;4.70;1.00;;;;;;5090122;28;20464;-78
2022/01/12 09:15:25;;;;;;;0.50;0.13;;;4.70;1.00;;;;;;5095185;28;20468;-77
2022/01/12 09:17:54;;;;;;;0.50;0.10;;;4.70;1.00;;;;;;5102322;28;20928;-79
2022/01/12 09:20:23;;;;;;;0.50;0.10;;;4.80;1.00;;;;;;5100400;28;20454;-78
2022/01/12 09:22:52;;;;;;;0.50;0.10;;;4.80;1.00;;;;;;5101104;28;20543;-78
2022/01/12 09:25:20;;;;;;;0.50;0.10;;;4.90;1.00;;;;;;5100650;28;20446;-77
2022/01/12 09:27:48;;;;;;;0.50;0.10;;;4.90;1.00;;;;;;5100264;28;20520;-79
2022/01/12 09:30:19;;;;;;;0.50;0.10;;;4.90;1.00;;;;;;5099187;28;20954;-78
2022/01/12 09:32:47;;;;;;;0.50;0.10;;;;;;;;;;5096889;28;20461;-76
2022/01/12 09:35:22;;;;;;;0.50;0.10;;;;;;;;;;5101627;28;20467;-78
2022/01/12 09:37:50;;;;;;;0.50;0.10;;;5.00;1.00;;;;;;5102699;28;20854;-78
2022/01/12 09:40:18;;;;;;;0.50;0.10;;;5.10;1.00;;;;;;5101279;28;20441;-79
2022/01/12 09:42:48;;;;;;;0.50;0.10;;;5.50;1.00;;;;;;5102869;28;20470;-79
2022/01/12 09:45:23;;;;;;;0.50;0.10;;;5.30;1.00;;;;;;5101529;28;20994;-81
2022/01/12 09:47:51;;;;;;;0.60;0.40;;;5.40;1.00;;;;;;5095331;28;20491;-82
2022/01/12 09:50:22;;;;;;;0.50;0.10;;;5.40;1.00;;;;;;5103777;28;20556;-82
2022/01/12 09:52:51;;;;;;;0.50;0.10;;;5.50;1.00;;;;;;5103475;28;20493;-81
2022/01/12 09:55:20;;;;;;;0.50;0.10;;;5.50;1.00;;;;;;5115135;28;20435;-81
2022/01/12 09:57:49;;;;;;;0.50;0.10;;;5.50;1.00;;;;;;5117295;28;20442;-81
2022/01/12 10:00:23;;;;;;;0.50;0.10;;;5.60;1.00;;;;;;5104721;28;20949;-79
2022/01/12 10:02:53;;;;;;;0.50;0.10;;;5.60;1.00;;;;;;5102373;28;20482;-81
2022/01/12 10:05:32;;;;;;;0.50;0.10;;;5.60;1.00;;;;;;5102740;28;20434;-82
2022/01/12 10:08:10;;;;;;;0.50;0.10;;;5.60;1.00;;;;;;5085003;28;20468;-81
2022/01/12 10:10:38;;;;;;;0.50;0.10;;;5.80;1.00;;;;;;5086851;28;21080;-82
2022/01/12 10:13:22;;;;;;;0.50;0.10;;;5.90;1.00;;;;;;5094399;28;20558;-80
2022/01/12 10:15:57;;;;;;;0.50;0.20;;;6.00;1.00;;;;;;5104027;28;20797;-78
2022/01/12 10:18:28;;;;;;;0.50;0.10;;;6.20;1.00;;;;;;5104034;28;20436;-79
2022/01/12 10:20:56;;;;;;;0.50;0.10;;;6.20;1.00;;;;;;5095017;28;20482;-80
2022/01/12 10:23:34;;;;;;;0.50;0.10;;;6.30;1.00;;;;;;5103873;28;20859;-82
2022/01/12 10:26:02;;;;;;;0.50;0.10;;;6.40;1.00;;;;;;5086236;28;20462;-79
2022/01/12 10:28:35;;;;;;;0.50;0.10;;;;;;;;;;5090447;28;20470;-80
2022/01/12 10:31:05;;;;;;;0.50;0.10;;;;;;;;;;5096237;28;20964;-79
2022/01/12 10:33:35;;;;;;;0.50;0.10;;;6.70;1.00;;;;;;5105783;28;20478;-79
2022/01/12 10:36:06;;;;;;;0.50;0.10;;;;;;;;;;5109125;28;20479;-81
2022/01/12 10:38:42;;;;;;;0.50;0.10;;;;;;;;;;5103726;28;20454;-78
2022/01/12 10:41:17;;;;;;;0.50;0.10;;;;;;;;;;5102284;28;20484;-80
2022/01/12 10:43:46;;;;;;;0.50;0.10;;;;;;;;;;5099571;28;20451;-82
2022/01/12 10:46:19;;;;;;;0.50;0.10;;;7.00;1.00;;;;;;5103773;28;20477;-81
2022/01/12 10:48:49;;;;;;;0.50;0.10;;;7.00;1.00;;;;;;5102939;28;20454;-82
2022/01/12 10:51:20;;;;;;;0.50;0.10;;;7.00;1.00;;;;;;5104219;28;20981;-81
2022/01/12 10:53:50;;;;;;;0.50;0.20;;;7.00;1.00;;;;;;5101410;28;20480;-80
2022/01/12 10:56:19;;;;;;;0.50;0.10;;;7.00;1.00;;;;;;5102273;28;20522;-81
2022/01/12 10:59:04;;;;;;;0.50;0.10;;;7.00;1.00;;;;;;5100039;28;20454;-80
2022/01/12 11:01:42;;;;;;;0.50;0.10;;;;;;;;;;5103137;28;20475;-78
2022/01/12 11:04:11;;;;;;;0.50;0.10;;;7.10;1.00;;;;;;5101380;28;20470;-80
2022/01/12 11:06:39;;;;;;;0.97;0.93;;;7.10;1.00;;;;;;5102064;28;20506;-80
2022/01/12 11:09:07;;;;;;;0.50;0.10;;;7.10;1.00;;;;;;5101667;28;20453;-81
2022/01/12 11:11:38;;;;;;;0.50;0.10;;;7.20;1.00;;;;;;5101524;28;20471;-81
2022/01/12 11:14:07;;;;;;;0.50;0.10;;;7.20;1.00;;;;;;5102502;28;20466;-79
2022/01/12 11:16:35;;;;;;;0.50;0.10;;;7.20;1.00;;;;;;5100027;28;20454;-80
2022/01/12 11:19:10;;;;;;;0.50;0.10;;;;;;;;;;5098914;28;20858;-81
2022/01/12 11:21:41;;;;;;;0.50;0.10;;;;;;;;;;5100466;28;20474;-81
2022/01/12 11:24:12;;;;;;;0.50;0.10;;;7.10;1.00;;;;;;5099877;28;20471;-80
2022/01/12 11:26:49;;;;;;;0.50;0.10;;;7.20;1.00;;;;;;5100213;28;20540;-82
2022/01/12 11:29:26;;;;;;;0.50;0.10;;;7.20;1.00;;;;;;5100926;28;20450;-82
2022/01/12 11:32:05;;;;;;;0.50;0.10;;;7.10;1.00;;;;;;5089694;28;20465;-81
2022/01/12 11:34:35;;;;;;;0.50;0.20;;;7.10;1.00;;;;;;5098558;28;20853;-82
2022/01/12 11:37:11;;;;;;;1.30;1.20;;;7.00;1.00;;;;;;5099133;28;20431;-81
2022/01/12 11:39:44;;;;;;;0.50;0.10;;;6.90;1.00;;;;;;5102070;28;20525;-83
2022/01/12 11:42:12;;;;;;;0.50;0.10;;;6.70;1.00;;;;;;5107733;28;20470;-82
2022/01/12 11:44:40;;;;;;;0.50;0.20;;;6.70;1.00;;;;;;5101432;28;20447;-80
2022/01/12 11:47:15;;;;;;;0.80;0.60;;;6.80;1.00;;;;;;5100409;28;20481;-80
2022/01/12 11:49:52;;;;;;;0.50;0.10;;;6.80;1.00;;;;;;5105577;28;20442;-82
2022/01/12 11:52:23;;;;;;;0.50;0.13;;;6.80;1.00;;;;;;5101127;28;20486;-80
2022/01/12 11:54:53;;;;;;;0.50;0.10;;;6.80;1.00;;;;;;5108332;28;20483;-81
2022/01/12 11:57:34;;;;;;;0.50;0.10;;;6.90;1.00;;;;;;5099249;28;20450;-80
2022/01/12 12:00:10;;;;;;;0.50;0.10;;;6.90;1.00;;;;;;5096699;28;20454;-79
2022/01/12 12:02:40;;;;;;;0.50;0.10;;;7.00;1.00;;;;;;5099070;28;20523;-78
2022/01/12 12:05:12;;;;;;;0.50;0.10;;;7.00;1.00;;;;;;5107761;28;20478;-79
2022/01/12 12:07:45;;;;;;;0.50;0.10;;;7.00;99.90;;;;;;5100457;28;20478;-80
2022/01/12 12:10:15;;;;;;;0.50;0.10;;;7.10;99.90;;;;;;5105706;28;20468;-81
2022/01/12 12:12:44;;;;;;;0.50;0.10;;;7.10;99.90;;;;;;5112933;28;20458;-81
2022/01/12 12:15:13;;;;;;;0.50;0.10;;;7.30;99.90;;;;;;5112899;28;20458;-82
2022/01/12 12:17:42;;;;;;;0.50;0.10;;;7.20;99.90;;;;;;5111692;28;20438;-82
2022/01/12 12:20:14;;;;;;;0.50;0.10;;;7.20;99.90;;;;;;5111683;28;20659;-82
2022/01/12 12:22:44;;;;;;;0.57;0.20;;;7.20;99.90;;;;;;5104649;28;20680;-81
2022/01/12 12:25:15;;;;;;;0.60;0.10;;;7.20;99.90;;;;;;5102426;28;20473;-80
2022/01/12 12:27:44;;;;;;;0.50;0.10;;;7.20;99.90;;;;;;5100616;28;20518;-81
2022/01/12 12:30:15;;;;;;;0.60;0.50;;;7.10;99.90;;;;;;5100928;28;20455;-80
2022/01/12 12:32:45;;;;;;;0.57;0.10;;;7.30;99.90;;;;;;5101847;28;20487;-83
2022/01/12 12:35:17;;;;;;;0.60;0.60;;;7.30;99.90;;;;;;5100956;28;20455;-81
2022/01/12 12:37:47;;;;;;;0.60;0.10;;;7.30;99.90;;;;;;5103329;28;20458;-81
2022/01/12 12:40:21;;;;;;;0.50;0.10;;;7.40;99.90;;;;;;5106764;28;20479;-81
2022/01/12 12:42:51;;;;;;;0.60;0.10;;;7.40;99.90;;;;;;5106273;28;20562;-80
2022/01/12 12:45:19;;;;;;;0.60;0.10;;;7.50;99.90;;;;;;5092906;28;20458;-82
2022/01/12 12:47:52;;;;;;;0.60;0.20;;;8.60;99.90;;;;;;5099342;28;20477;-82
2022/01/12 12:50:21;;;;;;;0.57;0.20;;;7.50;99.90;;;;;;5098618;28;20432;-81
2022/01/12 12:52:55;;;;;;;0.60;0.10;;;7.50;99.90;;;;;;5099400;28;20472;-82
2022/01/12 12:55:39;;;;;;;1.80;1.70;;;7.50;99.90;;;;;;5101035;28;20818;-81
2022/01/12 12:58:08;;;;;;;0.60;0.10;;;7.50;99.90;;;;;;5100497;28;20438;-82
2022/01/12 13:00:41;;;;;;;0.60;0.10;;;;;;;;;;5101057;28;20541;-81
2022/01/12 13:03:09;;;;;;;0.57;0.10;;;7.40;99.90;;;;;;5100482;28;20435;-82
2022/01/12 13:05:42;;;;;;;0.80;0.77;;;7.40;99.90;;;;;;5100339;28;20427;-81
2022/01/12 13:08:10;;;;;;;0.60;0.10;;;7.40;99.90;;;;;;5104599;28;20501;-82
2022/01/12 13:10:39;;;;;;;0.60;0.10;;;7.50;99.90;;;;;;5102894;28;20452;-82
2022/01/12 13:13:11;;;;;;;0.60;0.10;;;7.50;99.90;;;;;;5102361;28;20525;-82
2022/01/12 13:15:41;;;;;;;0.60;0.10;;;7.70;99.90;;;;;;5105187;28;20464;-81
2022/01/12 13:18:13;;;;;;;0.60;0.10;;;7.70;99.90;;;;;;5113833;28;20512;-81
2022/01/12 13:23:33;;;;;;;0.60;0.10;;;7.60;99.90;;;;;;5105999;28;20453;-82
2022/01/12 13:26:06;;;;;;;0.60;0.10;;;7.50;99.90;;;;;;5102763;28;20564;-82
2022/01/12 13:28:36;;;;;;;0.60;0.20;;;7.50;99.90;;;;;;5102538;28;20478;-82
2022/01/12 13:31:08;;;;;;;0.60;0.10;;;7.50;99.90;;;;;;5101929;28;21045;-81
2022/01/12 13:33:38;;;;;;;0.60;0.10;;;7.40;99.90;;;;;;5103515;28;20462;-80
2022/01/12 13:36:15;;;;;;;1.07;1.07;;;7.50;99.90;;;;;;5104042;28;20478;-82
2022/01/12 13:38:44;;;;;;;0.60;0.40;;;7.50;99.90;;;;;;5104629;28;20975;-81
2022/01/12 13:41:15;;;;;;;0.50;0.10;;;7.50;99.90;;;;;;5110701;28;20481;-79
2022/01/12 13:43:47;;;;;;;0.60;0.20;;;7.60;99.90;;;;;;5115267;28;20520;-79
2022/01/12 13:46:17;;;;;;;0.60;0.20;;;;;;;;;;5105594;28;20537;-81
2022/01/12 13:49:08;;;;;;;0.60;0.10;;;7.40;99.90;;;;;;5086931;28;20483;-81
2022/01/12 13:51:39;;;;;;;0.60;0.20;;;7.40;99.90;;;;;;5086324;28;20541;-82
2022/01/12 13:54:09;;;;;;;0.80;0.37;;;7.40;99.90;;;;;;5095692;28;20522;-81
2022/01/12 13:56:39;;;;;;;0.60;0.10;;;7.50;99.90;;;;;;5103720;28;20458;-82
2022/01/12 13:59:07;;;;;;;0.53;0.10;;;7.40;99.90;;;;;;5103634;28;20867;-82
2022/01/12 14:01:41;;;;;;;0.60;0.10;;;7.40;99.90;;;;;;5108609;28;20474;-82
2022/01/12 14:04:23;;;;;;;0.57;0.10;;;7.40;99.90;;;;;;5112470;28;20507;-80
2022/01/12 14:06:55;;;;;;;0.60;0.10;;;;;;;;;;5113901;28;20462;-81
2022/01/12 14:09:30;;;;;;;0.50;0.10;;;7.40;99.90;;;;;;5107303;28;20577;-82
2022/01/12 14:12:12;;;;;;;0.97;0.97;;;7.50;99.90;;;;;;5105267;28;20476;-81
2022/01/12 14:14:49;;;;;;;0.60;0.10;;;7.50;99.90;;;;;;5113156;28;20439;-81
2022/01/12 14:17:31;;;;;;;0.60;0.10;;;7.50;99.90;;;;;;5110277;28;20432;-81
2022/01/12 14:20:01;;;;;;;0.60;0.10;;;7.50;99.90;;;;;;5107345;28;20499;-79
2022/01/12 14:22:44;;;;;;;0.90;0.30;;;7.50;99.90;;;;;;5111009;28;20468;-81
2022/01/12 14:25:13;;;;;;;0.57;0.10;;;7.40;99.90;;;;;;5109109;28;20477;-82
2022/01/12 14:27:43;;;;;;;0.60;0.10;;;7.40;99.90;;;;;;5106563;28;20462;-81
2022/01/12 14:30:13;;;;;;;0.50;0.10;;;7.40;99.90;;;;;;5107199;28;20543;-81
2022/01/12 14:32:42;;;;;;;0.60;0.10;;;7.40;99.90;;;;;;5106756;28;20476;-80
2022/01/12 14:35:13;;;;;;;0.57;0.10;;;7.40;99.90;;;;;;5112044;28;20455;-81